createdAt,value
2019-05-02T00:01:38.572Z,24.70
2019-05-02T00:04:12.418Z,20.80
2019-05-02T00:06:42.917Z,17.80
2019-05-02T00:09:11.255Z,18.27
2019-05-02T00:11:40.628Z,21.07
2019-05-02T00:14:10.702Z,20.83
2019-05-02T00:16:40.127Z,21.50
2019-05-02T00:19:13.982Z,22.23
2019-05-02T00:21:42.963Z,24.57
2019-05-02T00:24:13.903Z,22.17
2019-05-02T00:26:43.182Z,22.43
2019-05-02T00:29:12.413Z,23.00
2019-05-02T00:31:46.307Z,22.87
2019-05-02T00:34:12.601Z,23.67
2019-05-02T00:36:41.765Z,23.00
2019-05-02T00:39:13.814Z,22.43
2019-05-02T00:41:41.925Z,26.67
2019-05-02T00:44:12.249Z,25.43
2019-05-02T00:46:41.718Z,25.20
2019-05-02T00:49:11.053Z,28.13
2019-05-02T00:51:40.370Z,28.20
2019-05-02T00:54:09.615Z,29.13
2019-05-02T00:56:40.250Z,33.40
2019-05-02T00:59:09.798Z,34.97
2019-05-02T01:02:10.317Z,33.87
2019-05-02T01:04:41.447Z,33.23
2019-05-02T01:07:11.182Z,32.23
2019-05-02T01:09:42.261Z,31.03
2019-05-02T01:12:11.413Z,32.20
2019-05-02T01:14:40.642Z,26.80
2019-05-02T01:17:09.831Z,31.57
2019-05-02T01:19:39.153Z,33.43
2019-05-02T01:22:10.712Z,30.53
2019-05-02T01:24:41.527Z,34.67
2019-05-02T01:27:36.022Z,32.30
2019-05-02T01:30:16.114Z,33.77
2019-05-02T01:32:56.191Z,30.60
2019-05-02T01:35:38.601Z,32.97
2019-05-02T01:38:16.013Z,32.53
2019-05-02T01:40:53.101Z,35.40
2019-05-02T01:43:25.455Z,34.57
2019-05-02T01:45:55.194Z,33.93
2019-05-02T01:48:24.775Z,34.47
2019-05-02T01:50:54.216Z,32.80
2019-05-02T01:53:23.556Z,36.30
2019-05-02T01:55:57.369Z,37.13
2019-05-02T01:58:23.817Z,33.40
2019-05-02T02:00:53.132Z,38.17
2019-05-02T02:03:22.734Z,35.60
2019-05-02T02:05:52.038Z,38.33
2019-05-02T02:08:21.298Z,38.13
2019-05-02T02:10:55.877Z,35.37
2019-05-02T02:13:21.433Z,40.50
2019-05-02T02:15:50.701Z,42.20
2019-05-02T02:18:22.092Z,39.40
2019-05-02T02:21:20.304Z,44.60
2019-05-02T02:23:55.891Z,43.43
2019-05-02T02:26:25.511Z,47.17
2019-05-02T02:28:54.784Z,43.07
2019-05-02T02:31:24.124Z,45.07
2019-05-02T02:33:53.364Z,42.47
2019-05-02T02:36:31.284Z,43.13
2019-05-02T02:38:53.676Z,44.07
2019-05-02T02:41:22.998Z,45.40
2019-05-02T02:44:20.375Z,43.23
2019-05-02T02:46:49.883Z,38.63
2019-05-02T02:49:21.692Z,39.27
2019-05-02T02:51:50.030Z,39.80
2019-05-02T02:54:19.342Z,39.40
2019-05-02T02:56:48.546Z,39.83
2019-05-02T02:59:19.670Z,40.57
2019-05-02T03:01:48.704Z,37.63
2019-05-02T03:04:17.967Z,35.90
2019-05-02T03:06:47.313Z,39.17
2019-05-02T03:09:20.163Z,35.43
2019-05-02T03:12:06.518Z,36.23
2019-05-02T03:14:40.818Z,36.63
2019-05-02T03:17:09.268Z,37.57
2019-05-02T03:19:38.537Z,36.10
2019-05-02T03:22:07.851Z,38.60
2019-05-02T03:24:44.276Z,36.67
2019-05-02T03:27:08.348Z,35.93
2019-05-02T03:29:44.335Z,37.27
2019-05-02T03:32:16.200Z,35.23
2019-05-02T03:34:53.046Z,34.93
2019-05-02T03:37:13.848Z,37.90
2019-05-02T03:39:49.759Z,32.23
2019-05-02T03:42:14.200Z,33.90
2019-05-02T03:44:55.267Z,34.37
2019-05-02T03:47:14.562Z,33.83
2019-05-02T03:49:48.664Z,35.93
2019-05-02T03:52:14.883Z,36.27
2019-05-02T03:54:50.281Z,31.23
2019-05-02T03:57:15.551Z,31.57
2019-05-02T03:59:44.850Z,31.30
2019-05-02T04:02:20.278Z,35.03
2019-05-02T04:04:54.263Z,31.57
2019-05-02T04:07:20.266Z,32.83
2019-05-02T04:09:49.736Z,29.67
2019-05-02T04:12:21.869Z,30.23
2019-05-02T04:14:55.625Z,28.83
2019-05-02T04:17:22.123Z,30.37
2019-05-02T04:19:51.501Z,31.30
2019-05-02T04:22:21.556Z,32.17
2019-05-02T04:24:54.578Z,30.97
2019-05-02T04:27:27.909Z,28.77
2019-05-02T04:29:52.857Z,28.27
2019-05-02T04:32:22.213Z,31.07
2019-05-02T04:34:55.060Z,31.30
2019-05-02T04:37:22.470Z,29.77
2019-05-02T04:39:53.757Z,30.40
2019-05-02T04:42:23.370Z,34.00
2019-05-02T04:45:12.864Z,29.93
2019-05-02T04:47:23.904Z,31.70
2019-05-02T04:49:53.222Z,35.90
2019-05-02T04:52:22.576Z,35.90
2019-05-02T04:54:51.895Z,34.07
2019-05-02T04:57:27.143Z,39.57
2019-05-02T05:00:02.494Z,38.20
2019-05-02T05:02:34.303Z,34.83
2019-05-02T05:04:54.072Z,33.17
2019-05-02T05:07:23.740Z,36.93
2019-05-02T05:09:58.203Z,33.87
2019-05-02T05:12:23.916Z,30.97
2019-05-02T05:14:53.240Z,31.40
2019-05-02T05:17:25.189Z,30.13
2019-05-02T05:19:53.337Z,29.47
2019-05-02T05:22:22.682Z,28.80
2019-05-02T05:25:01.407Z,26.97
2019-05-02T05:27:30.672Z,27.17
2019-05-02T05:30:07.925Z,23.90
2019-05-02T05:32:30.892Z,24.53
2019-05-02T05:35:03.197Z,19.50
2019-05-02T05:37:31.117Z,18.13
2019-05-02T05:40:00.712Z,20.73
2019-05-02T05:42:33.210Z,19.43
2019-05-02T05:45:03.674Z,21.43
2019-05-02T05:47:31.976Z,17.77
2019-05-02T05:50:01.470Z,19.20
2019-05-02T05:52:33.027Z,17.60
2019-05-02T05:55:04.920Z,18.23
2019-05-02T05:57:33.388Z,19.63
2019-05-02T06:00:08.366Z,16.60
2019-05-02T06:02:52.343Z,15.43
2019-05-02T06:05:07.788Z,16.43
2019-05-02T06:07:41.924Z,14.80
2019-05-02T06:10:08.300Z,17.53
2019-05-02T06:12:39.016Z,16.97
2019-05-02T06:15:09.102Z,12.17
2019-05-02T06:17:38.394Z,13.03
2019-05-02T06:20:08.249Z,11.90
2019-05-02T06:22:37.682Z,14.43
2019-05-02T06:25:09.472Z,13.83
2019-05-02T06:27:38.979Z,15.73
2019-05-02T06:30:08.827Z,12.77
2019-05-02T06:32:38.070Z,12.30
2019-05-02T06:35:08.944Z,9.93
2019-05-02T06:37:40.594Z,13.00
2019-05-02T06:40:09.519Z,11.93
2019-05-02T06:42:39.061Z,9.90
2019-05-02T06:45:09.402Z,10.70
2019-05-02T06:47:41.714Z,11.73
2019-05-02T06:50:10.237Z,9.77
2019-05-02T06:52:39.567Z,9.47
2019-05-02T06:55:10.014Z,10.07
2019-05-02T06:57:39.367Z,12.00
2019-05-02T07:00:10.670Z,10.00
2019-05-02T07:02:39.990Z,13.73
2019-05-02T07:05:09.221Z,15.00
2019-05-02T07:07:38.494Z,13.03
2019-05-02T07:10:08.481Z,10.53
2019-05-02T07:12:37.727Z,10.27
2019-05-02T07:15:10.844Z,13.63
2019-05-02T07:17:42.273Z,16.27
2019-05-02T07:20:11.953Z,8.80
2019-05-02T07:22:41.408Z,14.37
2019-05-02T07:25:11.227Z,9.77
2019-05-02T07:27:40.517Z,10.63
2019-05-02T07:30:11.680Z,9.80
2019-05-02T07:32:40.928Z,12.63
2019-05-02T07:35:10.803Z,10.33
2019-05-02T07:37:43.964Z,11.37
2019-05-02T07:40:12.154Z,10.50
2019-05-02T07:42:43.178Z,12.57
2019-05-02T07:45:12.660Z,11.23
2019-05-02T07:47:42.514Z,11.80
2019-05-02T07:50:12.581Z,11.00
2019-05-02T07:52:41.891Z,11.77
2019-05-02T07:55:11.341Z,9.80
2019-05-02T07:57:41.013Z,11.67
2019-05-02T08:00:11.136Z,13.07
2019-05-02T08:02:40.465Z,11.73
2019-05-02T08:05:09.992Z,13.57
2019-05-02T08:07:39.250Z,13.10
2019-05-02T08:10:09.066Z,10.30
2019-05-02T08:12:39.767Z,10.87
2019-05-02T08:15:13.325Z,13.73
2019-05-02T08:17:40.235Z,13.83
2019-05-02T08:20:13.552Z,10.43
2019-05-02T08:22:43.947Z,11.93
2019-05-02T08:25:11.718Z,11.60
2019-05-02T08:27:56.160Z,9.73
2019-05-02T08:30:28.847Z,15.23
2019-05-02T08:32:58.171Z,11.37
2019-05-02T08:35:28.247Z,11.13
2019-05-02T08:37:57.891Z,13.77
2019-05-02T08:40:27.303Z,12.00
2019-05-02T08:42:56.944Z,15.77
2019-05-02T08:45:26.795Z,16.30
2019-05-02T08:48:00.182Z,14.27
2019-05-02T08:50:31.529Z,14.33
2019-05-02T08:52:58.205Z,10.97
2019-05-02T08:55:29.912Z,13.63
2019-05-02T08:57:58.683Z,14.57
2019-05-02T09:00:32.254Z,34.97
2019-05-02T09:03:02.737Z,12.47
2019-05-02T09:05:30.074Z,14.03
2019-05-02T09:07:59.448Z,20.00
2019-05-02T09:10:28.706Z,16.10
2019-05-02T09:12:57.989Z,54.83
2019-05-02T09:15:27.436Z,17.80
2019-05-02T09:17:56.848Z,17.87
2019-05-02T09:20:26.184Z,14.63
2019-05-02T09:22:56.127Z,32.30
2019-05-02T09:25:25.760Z,18.53
2019-05-02T09:27:55.127Z,21.17
2019-05-02T09:30:25.969Z,16.80
2019-05-02T09:32:57.321Z,19.57
2019-05-02T09:35:26.246Z,18.67
2019-05-02T09:37:55.497Z,19.33
2019-05-02T09:40:24.841Z,17.37
2019-05-02T09:42:58.509Z,15.77
2019-05-02T09:45:33.472Z,14.53
2019-05-02T09:48:07.114Z,20.27
2019-05-02T09:50:34.802Z,16.30
2019-05-02T09:53:03.869Z,16.03
2019-05-02T09:55:33.171Z,19.57
2019-05-02T09:58:03.006Z,48.80
2019-05-02T10:00:57.287Z,19.87
2019-05-02T10:03:26.680Z,17.30
2019-05-02T10:05:56.010Z,16.20
2019-05-02T10:08:25.440Z,15.43
2019-05-02T10:10:54.675Z,16.87
2019-05-02T10:13:23.922Z,18.50
2019-05-02T10:15:53.582Z,18.17
2019-05-02T10:18:25.543Z,15.90
2019-05-02T10:20:54.124Z,18.00
2019-05-02T10:23:23.874Z,20.40
2019-05-02T10:25:53.161Z,19.87
2019-05-02T10:28:23.008Z,16.73
2019-05-02T10:30:56.442Z,14.53
2019-05-02T10:33:23.411Z,17.67
2019-05-02T10:35:52.784Z,21.93
2019-05-02T10:38:24.081Z,19.73
2019-05-02T10:41:01.342Z,15.83
2019-05-02T10:43:24.908Z,15.13
2019-05-02T10:46:01.422Z,15.17
2019-05-02T10:48:33.005Z,18.83
2019-05-02T10:51:25.330Z,15.23
2019-05-02T10:53:52.706Z,17.97
2019-05-02T10:56:22.426Z,17.27
2019-05-02T10:58:52.336Z,16.33
2019-05-02T11:01:23.655Z,18.30
2019-05-02T11:03:53.319Z,16.47
2019-05-02T11:06:22.632Z,15.07
2019-05-02T11:08:52.512Z,15.93
2019-05-02T11:11:22.708Z,19.70
2019-05-02T11:14:06.656Z,13.73
2019-05-02T11:16:56.835Z,12.63
2019-05-02T11:19:42.481Z,13.77
2019-05-02T11:22:12.192Z,15.30
2019-05-02T11:24:41.847Z,13.47
2019-05-02T11:27:12.782Z,15.63
2019-05-02T11:29:42.558Z,16.03
2019-05-02T11:32:12.777Z,13.73
2019-05-02T11:34:42.363Z,16.73
2019-05-02T11:37:12.233Z,14.73
2019-05-02T11:39:46.152Z,16.10
2019-05-02T11:42:17.776Z,15.23
2019-05-02T11:44:44.720Z,14.73
2019-05-02T11:47:17.248Z,14.77
2019-05-02T11:49:46.832Z,16.10
2019-05-02T11:52:15.965Z,17.53
2019-05-02T11:54:48.467Z,19.03
2019-05-02T11:57:21.036Z,18.90
2019-05-02T11:59:48.133Z,22.07
2019-05-02T12:02:56.264Z,15.50
2019-05-02T12:05:26.651Z,14.80
2019-05-02T12:07:55.306Z,15.00
2019-05-02T12:10:27.930Z,16.90
2019-05-02T12:12:55.634Z,15.13
2019-05-02T12:15:24.938Z,15.03
2019-05-02T12:17:54.288Z,15.23
2019-05-02T12:20:23.766Z,14.57
2019-05-02T12:22:53.172Z,19.63
2019-05-02T12:25:22.443Z,14.37
2019-05-02T12:27:52.742Z,14.17
2019-05-02T12:30:22.858Z,11.33
2019-05-02T12:32:53.116Z,15.43
2019-05-02T12:35:22.975Z,16.40
2019-05-02T12:37:55.176Z,14.90
2019-05-02T12:40:23.676Z,13.83
2019-05-02T12:42:52.916Z,14.33
2019-05-02T12:45:22.236Z,12.57
2019-05-02T12:47:52.293Z,15.60
2019-05-02T12:50:45.511Z,15.17
2019-05-02T12:53:14.934Z,14.60
2019-05-02T12:55:44.305Z,14.63
2019-05-02T12:58:13.626Z,16.10
2019-05-02T13:00:43.281Z,21.67
2019-05-02T13:03:31.777Z,14.30
2019-05-02T13:06:02.998Z,13.83
2019-05-02T13:08:34.338Z,17.37
2019-05-02T13:11:18.075Z,13.10
2019-05-02T13:13:47.339Z,13.77
2019-05-02T13:16:16.703Z,15.27
2019-05-02T13:18:45.980Z,15.13
2019-05-02T13:21:20.785Z,13.83
2019-05-02T13:23:54.595Z,17.03
2019-05-02T13:26:27.087Z,17.03
2019-05-02T13:28:54.909Z,16.30
2019-05-02T13:31:43.193Z,17.77
2019-05-02T13:34:31.956Z,13.60
2019-05-02T13:37:02.928Z,15.37
2019-05-02T13:39:43.735Z,12.00
2019-05-02T13:42:13.174Z,13.00
2019-05-02T13:44:49.412Z,10.53
2019-05-02T13:47:21.872Z,12.63
2019-05-02T13:49:54.814Z,14.03
2019-05-02T13:52:22.730Z,14.23
2019-05-02T13:54:52.320Z,10.87
2019-05-02T13:57:21.919Z,14.33
2019-05-02T13:59:52.579Z,15.33
2019-05-02T14:02:42.665Z,11.75
2019-05-02T14:05:13.262Z,13.35
2019-05-02T14:07:48.403Z,9.70
2019-05-02T14:10:34.111Z,13.78
2019-05-02T14:13:03.196Z,13.13
2019-05-02T14:15:36.956Z,15.65
2019-05-02T14:18:06.214Z,10.38
2019-05-02T14:20:37.406Z,10.10
2019-05-02T14:23:06.612Z,15.10
2019-05-02T14:25:35.956Z,11.73
2019-05-02T14:28:05.245Z,12.05
2019-05-02T14:30:39.390Z,12.50
2019-05-02T14:33:11.763Z,13.32
2019-05-02T14:35:42.609Z,15.18
2019-05-02T14:38:15.870Z,15.58
2019-05-02T14:41:14.818Z,14.43
2019-05-02T14:43:55.482Z,12.47
2019-05-02T14:46:35.367Z,13.65
2019-05-02T14:48:57.435Z,14.73
2019-05-02T14:51:27.989Z,11.23
2019-05-02T14:54:02.556Z,16.67
2019-05-02T14:56:47.787Z,13.90
2019-05-02T14:59:19.644Z,17.90
2019-05-02T15:01:50.279Z,15.53
2019-05-02T15:04:19.516Z,12.93
2019-05-02T15:06:48.775Z,17.93
2019-05-02T15:09:24.813Z,12.93
2019-05-02T15:11:58.436Z,13.03
2019-05-02T15:14:33.088Z,14.67
2019-05-02T15:17:02.877Z,10.65
2019-05-02T15:19:33.253Z,11.80
2019-05-02T15:22:02.911Z,14.60
2019-05-02T15:24:36.160Z,10.33
2019-05-02T15:27:11.493Z,13.38
2019-05-02T15:29:34.062Z,12.43
2019-05-02T15:32:14.896Z,10.18
2019-05-02T15:35:02.648Z,11.12
2019-05-02T15:37:33.169Z,14.13
2019-05-02T15:42:35.766Z,12.68
2019-05-02T15:45:08.779Z,12.80
2019-05-02T15:47:41.587Z,14.80
2019-05-02T15:50:09.375Z,15.27
2019-05-02T15:52:41.944Z,13.70
2019-05-02T15:55:11.851Z,17.93
2019-05-02T15:57:43.742Z,15.07
2019-05-02T16:00:21.912Z,10.40
2019-05-02T16:02:46.303Z,13.13
2019-05-02T16:05:15.689Z,11.17
2019-05-02T16:07:46.654Z,13.50
2019-05-02T16:10:16.106Z,11.13
2019-05-02T16:12:47.029Z,13.23
2019-05-02T16:15:21.526Z,14.77
2019-05-02T16:17:47.407Z,18.27
2019-05-02T16:20:24.054Z,12.30
2019-05-02T16:22:53.371Z,12.23
2019-05-02T16:25:24.522Z,15.00
2019-05-02T16:27:57.537Z,15.07
2019-05-02T16:30:25.208Z,12.77
2019-05-02T16:32:57.003Z,15.57
2019-05-02T16:35:27.308Z,13.63
2019-05-02T16:37:56.640Z,12.20
2019-05-02T16:40:30.152Z,11.07
2019-05-02T16:43:00.174Z,11.07
2019-05-02T16:45:29.486Z,12.97
2019-05-02T16:48:00.501Z,14.27
2019-05-02T16:50:35.249Z,14.63
2019-05-02T16:53:02.288Z,15.00
2019-05-02T16:55:32.731Z,20.70
2019-05-02T16:58:06.971Z,17.10
2019-05-02T17:00:36.876Z,14.90
2019-05-02T17:03:04.482Z,11.67
2019-05-02T17:05:34.217Z,11.83
2019-05-02T17:08:22.620Z,16.07
2019-05-02T17:10:56.806Z,14.53
2019-05-02T17:13:27.557Z,20.20
2019-05-02T17:15:57.162Z,16.60
2019-05-02T17:18:26.558Z,22.20
2019-05-02T17:20:56.933Z,23.03
2019-05-02T17:23:26.503Z,26.23
2019-05-02T17:25:55.773Z,22.20
2019-05-02T17:28:25.166Z,23.90
2019-05-02T17:30:54.563Z,20.13
2019-05-02T17:33:23.833Z,19.13
2019-05-02T17:35:54.283Z,17.50
2019-05-02T17:38:28.901Z,19.23
2019-05-02T17:40:59.271Z,16.80
2019-05-02T17:43:25.842Z,15.13
2019-05-02T17:45:56.475Z,23.83
2019-05-02T17:48:25.901Z,23.27
2019-05-02T17:51:16.967Z,20.90
2019-05-02T17:53:49.797Z,24.63
2019-05-02T17:56:20.966Z,31.70
2019-05-02T17:58:54.251Z,19.73
2019-05-02T18:01:26.517Z,18.97
2019-05-02T18:03:56.203Z,16.43
2019-05-02T18:06:32.996Z,19.00
2019-05-02T18:08:56.417Z,18.47
2019-05-02T18:11:29.559Z,39.83
2019-05-02T18:13:56.738Z,26.93
2019-05-02T18:16:25.995Z,27.03
2019-05-02T18:18:55.272Z,20.57
2019-05-02T18:21:27.529Z,19.73
2019-05-02T18:23:57.075Z,18.07
2019-05-02T18:26:26.461Z,19.10
2019-05-02T18:28:57.245Z,21.43
2019-05-02T18:31:26.534Z,41.87
2019-05-02T18:33:55.969Z,60.63
2019-05-02T18:36:26.906Z,36.17
2019-05-02T18:39:00.657Z,35.27
2019-05-02T18:41:27.402Z,115.10
2019-05-02T18:43:56.646Z,78.53
2019-05-02T18:46:25.917Z,129.00
2019-05-02T18:48:55.236Z,57.67
2019-05-02T18:51:24.461Z,35.53
2019-05-02T18:53:57.870Z,30.97
2019-05-02T18:56:24.690Z,27.27
2019-05-02T18:58:54.140Z,28.47
2019-05-02T19:01:23.447Z,23.40
2019-05-02T19:03:56.198Z,24.70
2019-05-02T19:06:27.988Z,26.57
2019-05-02T19:08:57.656Z,26.37
2019-05-02T19:11:33.710Z,29.77
2019-05-02T19:14:02.563Z,26.47
2019-05-02T19:16:31.893Z,25.93
2019-05-02T19:19:01.762Z,26.93
2019-05-02T19:21:35.478Z,26.57
2019-05-02T19:24:02.442Z,27.33
2019-05-02T19:26:32.593Z,28.13
2019-05-02T19:29:08.441Z,31.97
2019-05-02T19:31:46.090Z,32.73
2019-05-02T19:34:16.728Z,31.60
2019-05-02T19:36:46.099Z,34.57
2019-05-02T19:39:15.350Z,35.33
2019-05-02T19:41:45.688Z,48.87
2019-05-02T19:44:15.480Z,39.60
2019-05-02T19:46:45.432Z,30.73
2019-05-02T19:49:16.284Z,34.13
2019-05-02T19:51:50.315Z,39.30
2019-05-02T19:54:17.155Z,50.00
2019-05-02T19:56:47.624Z,226.00
2019-05-02T19:59:22.503Z,164.77
2019-05-02T20:01:49.747Z,82.00
2019-05-02T20:04:19.166Z,57.73
2019-05-02T20:06:48.447Z,60.63
2019-05-02T20:09:17.693Z,63.77
2019-05-02T20:11:46.973Z,111.67
2019-05-02T20:14:16.404Z,93.70
2019-05-02T20:16:52.900Z,84.93
2019-05-02T20:19:26.931Z,55.63
2019-05-02T20:22:12.027Z,45.60
2019-05-02T20:24:59.858Z,47.03
2019-05-02T20:27:27.910Z,78.63
2019-05-02T20:29:56.194Z,71.07
2019-05-02T20:32:25.600Z,78.10
2019-05-02T20:34:55.101Z,58.00
2019-05-02T20:37:24.406Z,101.50
2019-05-02T20:39:53.723Z,52.70
2019-05-02T20:42:23.839Z,51.30
2019-05-02T20:44:53.216Z,55.43
2019-05-02T20:47:25.466Z,48.80
2019-05-02T20:49:54.720Z,33.27
2019-05-02T20:52:24.046Z,32.67
2019-05-02T20:54:53.314Z,42.20
2019-05-02T20:57:22.679Z,49.60
2019-05-02T20:59:52.631Z,53.70
2019-05-02T21:02:22.353Z,39.50
2019-05-02T21:04:52.240Z,41.07
2019-05-02T21:07:42.376Z,45.83
2019-05-02T21:10:34.105Z,39.10
2019-05-02T21:13:03.453Z,46.40
2019-05-02T21:15:32.698Z,35.13
2019-05-02T21:18:02.327Z,38.50
2019-05-02T21:20:32.540Z,39.60
2019-05-02T21:23:02.334Z,45.07
2019-05-02T21:25:32.598Z,43.00
2019-05-02T21:28:02.827Z,39.77
2019-05-02T21:30:32.438Z,44.83
2019-05-02T21:33:02.854Z,43.77
2019-05-02T21:35:32.574Z,39.43
2019-05-02T21:38:02.189Z,41.70
2019-05-02T21:40:32.702Z,45.87
2019-05-02T21:43:02.544Z,41.80
2019-05-02T21:45:31.867Z,54.43
2019-05-02T21:48:02.317Z,60.53
2019-05-02T21:51:03.108Z,58.33
2019-05-02T21:53:58.409Z,52.97
2019-05-02T21:56:43.476Z,48.37
2019-05-02T21:59:12.919Z,41.63
2019-05-02T22:01:51.895Z,39.83
2019-05-02T22:04:22.435Z,39.93
2019-05-02T22:06:52.364Z,37.20
2019-05-02T22:09:23.172Z,38.10
2019-05-02T22:11:52.774Z,34.83
2019-05-02T22:14:22.532Z,34.03
2019-05-02T22:16:53.057Z,37.27
2019-05-02T22:19:22.487Z,39.70
2019-05-02T22:21:52.473Z,36.90
2019-05-02T22:24:21.887Z,32.20
2019-05-02T22:26:52.629Z,32.57
2019-05-02T22:29:22.003Z,36.17
2019-05-02T22:31:52.179Z,38.27
2019-05-02T22:34:22.155Z,61.33
2019-05-02T22:36:53.847Z,40.90
2019-05-02T22:39:43.127Z,29.93
2019-05-02T22:42:12.872Z,37.07
2019-05-02T22:44:42.318Z,40.43
2019-05-02T22:47:14.023Z,33.27
2019-05-02T22:49:42.778Z,28.83
2019-05-02T22:52:14.145Z,27.93
2019-05-02T22:54:43.082Z,25.33
2019-05-02T22:57:14.342Z,25.63
2019-05-02T22:59:43.241Z,26.23
2019-05-02T23:02:13.058Z,22.83
2019-05-02T23:04:42.316Z,26.13
2019-05-02T23:07:12.664Z,28.37
2019-05-02T23:09:43.698Z,47.13
2019-05-02T23:12:13.233Z,40.10
2019-05-02T23:14:42.645Z,63.90
2019-05-02T23:17:12.772Z,94.10
2019-05-02T23:19:42.483Z,72.67
2019-05-02T23:22:12.761Z,26.00
2019-05-02T23:25:14.324Z,44.70
2019-05-02T23:27:56.102Z,31.80
2019-05-02T23:30:25.455Z,33.60
2019-05-02T23:32:54.787Z,35.60
2019-05-02T23:35:24.033Z,29.37
2019-05-02T23:37:53.298Z,30.37
2019-05-02T23:40:22.576Z,30.17
2019-05-02T23:42:52.408Z,29.67
2019-05-02T23:45:22.571Z,25.87
2019-05-02T23:47:52.778Z,27.37
2019-05-02T23:50:22.875Z,30.00
2019-05-02T23:52:52.397Z,27.90
2019-05-02T23:55:22.852Z,28.87
2019-05-02T23:57:52.490Z,27.20
